Time;durP1;ratioP1;P1;durP2;ratioP2;P2;SDS_P1;SDS_P2;PMS_P1;PMS_P2;Temp;Humidity;BMP_temperature;BMP_pressure;BME280_temperature;BME280_humidity;BME280_pressure;Samples;Min_cycle;Max_cycle;Signal;HPM_P1;HPM_P2
2023/03/23 00:01:31;;;;;;;2.07;1.87;;;11.30;99.90;;;;;;5019741;28;21036;-89
2023/03/23 00:03:58;;;;;;;0.50;0.50;;;11.20;99.90;;;;;;5031332;28;20263;-88
2023/03/23 00:06:26;;;;;;;1.73;1.13;;;11.20;99.90;;;;;;5033440;28;20222;-86
2023/03/23 00:08:59;;;;;;;3.20;1.83;;;11.20;99.90;;;;;;5033679;28;20233;-86
2023/03/23 00:11:28;;;;;;;2.67;1.87;;;11.10;99.90;;;;;;5035273;28;20309;-86
2023/03/23 00:13:57;;;;;;;2.77;2.60;;;11.10;99.90;;;;;;5036026;28;20256;-86
2023/03/23 00:16:38;;;;;;;1.27;1.00;;;11.10;99.90;;;;;;5035915;28;20190;-90
2023/03/23 00:19:13;;;;;;;1.50;1.27;;;11.10;99.90;;;;;;5042777;28;20226;-88
2023/03/23 00:21:41;;;;;;;2.00;0.70;;;11.10;99.90;;;;;;5035955;28;20316;-89
2023/03/23 00:24:18;;;;;;;1.80;1.67;;;11.10;99.90;;;;;;5018369;28;20214;-91
2023/03/23 00:26:46;;;;;;;1.47;1.37;;;11.20;99.90;;;;;;5058764;28;20214;-89
2023/03/23 00:29:18;;;;;;;2.40;2.27;;;11.20;99.90;;;;;;5033011;28;20253;-90
2023/03/23 00:31:48;;;;;;;3.83;3.07;;;11.20;99.90;;;;;;5037754;28;20280;-89
2023/03/23 00:34:24;;;;;;;4.03;3.20;;;11.20;99.90;;;;;;5035101;28;20186;-86
2023/03/23 00:36:56;;;;;;;3.00;2.33;;;11.20;99.90;;;;;;5036349;28;20218;-93
2023/03/23 00:39:24;;;;;;;4.20;3.80;;;11.20;99.90;;;;;;5061567;28;20234;-87
2023/03/23 00:41:50;;;;;;;2.87;2.57;;;11.30;99.90;;;;;;5037095;28;20275;-91
2023/03/23 00:44:16;;;;;;;5.83;3.83;;;11.30;99.90;;;;;;5040031;28;20217;-89
2023/03/23 00:46:44;;;;;;;6.47;5.40;;;11.30;99.90;;;;;;5037128;28;20785;-86
2023/03/23 00:49:12;;;;;;;6.73;3.10;;;11.30;99.90;;;;;;5023565;28;20269;-90
2023/03/23 00:51:38;;;;;;;5.13;3.60;;;11.30;99.90;;;;;;5037216;28;20268;-87
2023/03/23 00:54:04;;;;;;;5.57;4.90;;;11.30;99.90;;;;;;5019481;28;20245;-88
2023/03/23 00:56:30;;;;;;;5.87;3.87;;;11.30;99.90;;;;;;5018435;28;20639;-90
2023/03/23 00:58:56;;;;;;;6.97;5.03;;;11.40;99.90;;;;;;5037173;28;20305;-89
2023/03/23 01:01:22;;;;;;;4.33;3.93;;;11.30;99.90;;;;;;5045737;28;20198;-88
2023/03/23 01:03:49;;;;;;;7.50;4.67;;;11.30;99.90;;;;;;5036447;28;20230;-93
2023/03/23 01:06:15;;;;;;;7.13;5.10;;;11.30;99.90;;;;;;5037932;28;20215;-88
2023/03/23 01:08:45;;;;;;;4.73;3.90;;;11.30;99.90;;;;;;5036012;28;20218;-89
2023/03/23 01:11:14;;;;;;;4.27;3.90;;;11.30;99.90;;;;;;5034294;28;20309;-90
2023/03/23 01:13:43;;;;;;;11.00;6.40;;;11.30;99.90;;;;;;5044186;28;20178;-91
2023/03/23 01:16:10;;;;;;;12.77;5.60;;;11.30;99.90;;;;;;5040199;28;20182;-88
2023/03/23 01:18:37;;;;;;;6.03;4.63;;;11.30;99.90;;;;;;5035610;28;20803;-88
2023/03/23 01:21:12;;;;;;;8.00;5.57;;;11.30;99.90;;;;;;5027526;28;20230;-88
2023/03/23 01:23:39;;;;;;;6.47;4.63;;;11.30;99.90;;;;;;5039002;28;20468;-89
2023/03/23 01:26:07;;;;;;;4.87;4.23;;;11.30;99.90;;;;;;5045932;28;20219;-89
2023/03/23 01:28:34;;;;;;;7.37;3.83;;;11.30;99.90;;;;;;5038077;28;20182;-89
2023/03/23 01:31:06;;;;;;;3.67;3.13;;;11.30;99.90;;;;;;5036629;28;20242;-89
2023/03/23 01:33:32;;;;;;;3.87;2.70;;;11.20;99.90;;;;;;5037734;28;20276;-91
2023/03/23 01:36:01;;;;;;;8.23;4.07;;;11.30;99.90;;;;;;5046023;28;20225;-88
2023/03/23 01:38:27;;;;;;;5.93;4.40;;;11.30;99.90;;;;;;5036398;28;20679;-91
2023/03/23 01:40:53;;;;;;;4.17;2.43;;;11.30;99.90;;;;;;5055139;28;20201;-90
2023/03/23 01:43:19;;;;;;;6.33;3.30;;;11.30;99.90;;;;;;5039515;28;20285;-85
2023/03/23 01:45:45;;;;;;;3.63;2.97;;;11.40;99.90;;;;;;5013590;28;20288;-87
2023/03/23 01:48:37;;;;;;;8.80;3.70;;;11.50;99.90;;;;;;5030001;28;20284;-87
2023/03/23 01:51:10;;;;;;;4.53;3.60;;;11.60;99.90;;;;;;5029267;28;20274;-87
2023/03/23 01:53:48;;;;;;;3.43;2.63;;;11.60;99.90;;;;;;5029713;28;20566;-87
2023/03/23 01:56:16;;;;;;;5.10;3.33;;;11.60;99.90;;;;;;5030966;28;20571;-87
2023/03/23 01:58:42;;;;;;;6.10;4.77;;;11.60;99.90;;;;;;5030438;28;20203;-87
2023/03/23 02:01:11;;;;;;;4.27;2.60;;;11.60;99.90;;;;;;5014005;28;20214;-87
2023/03/23 02:03:41;;;;;;;5.00;3.17;;;11.60;99.90;;;;;;5030885;28;20293;-87
2023/03/23 02:06:07;;;;;;;4.30;3.30;;;11.60;99.90;;;;;;5030771;28;20275;-87
2023/03/23 02:08:35;;;;;;;4.97;3.60;;;11.70;99.90;;;;;;5013175;28;20217;-87
2023/03/23 02:11:01;;;;;;;4.77;2.80;;;11.70;99.90;;;;;;5029552;28;20303;-87
2023/03/23 02:13:28;;;;;;;2.93;2.70;;;11.70;99.90;;;;;;5031274;28;20311;-87
2023/03/23 02:16:31;;;;;;;4.07;2.17;;;11.70;99.90;;;;;;5013456;28;20242;-86
2023/03/23 02:19:18;;;;;;;2.00;1.33;;;11.70;99.90;;;;;;5029183;28;20297;-87
2023/03/23 02:22:09;;;;;;;8.20;3.63;;;11.70;99.90;;;;;;5029443;28;20310;-88
2023/03/23 02:24:43;;;;;;;7.37;3.00;;;11.70;99.90;;;;;;5030712;28;20210;-87
2023/03/23 02:27:24;;;;;;;1.90;1.73;;;11.70;99.90;;;;;;5029506;28;20213;-87
2023/03/23 02:30:27;;;;;;;7.53;2.67;;;11.70;99.90;;;;;;5029226;28;20373;-88
2023/03/23 02:33:29;;;;;;;3.30;2.20;;;11.80;99.90;;;;;;5029255;28;20206;-87
2023/03/23 02:35:58;;;;;;;3.80;1.97;;;11.70;99.90;;;;;;5029095;28;20222;-87
2023/03/23 02:38:50;;;;;;;3.10;2.80;;;11.80;99.90;;;;;;5028958;28;20238;-87
2023/03/23 02:41:21;;;;;;;4.00;2.47;;;11.80;99.90;;;;;;5030118;28;20248;-87
2023/03/23 02:43:49;;;;;;;1.60;1.50;;;11.70;99.90;;;;;;5028767;28;20155;-87
2023/03/23 02:46:16;;;;;;;4.17;1.90;;;11.70;99.90;;;;;;5030788;28;20215;-87
2023/03/23 02:48:44;;;;;;;5.20;2.93;;;11.70;99.90;;;;;;5028711;28;20656;-88
2023/03/23 02:51:12;;;;;;;4.33;1.43;;;11.70;99.90;;;;;;5029197;28;20699;-88
2023/03/23 02:53:42;;;;;;;8.97;2.33;;;11.70;99.90;;;;;;5028953;28;20218;-87
2023/03/23 02:56:10;;;;;;;2.93;2.27;;;11.70;99.90;;;;;;5028661;28;20218;-87
2023/03/23 02:58:36;;;;;;;2.87;1.97;;;11.70;99.90;;;;;;5028864;28;20171;-87
2023/03/23 03:01:25;;;;;;;1.43;1.33;;;11.70;99.90;;;;;;5029636;28;20302;-87
2023/03/23 03:03:52;;;;;;;2.50;2.30;;;11.70;99.90;;;;;;5028663;28;20214;-87
2023/03/23 03:06:41;;;;;;;2.30;1.77;;;11.70;99.90;;;;;;5028662;28;20225;-88
2023/03/23 03:09:18;;;;;;;1.53;1.37;;;11.70;99.90;;;;;;5029865;28;20225;-88
2023/03/23 03:11:50;;;;;;;2.07;1.27;;;11.70;99.90;;;;;;5029847;28;20210;-88
2023/03/23 03:14:44;;;;;;;2.47;2.27;;;11.70;99.90;;;;;;5028269;28;20769;-87
2023/03/23 03:17:25;;;;;;;2.67;2.47;;;11.70;99.90;;;;;;5029485;28;20210;-87
2023/03/23 03:19:57;;;;;;;1.83;1.33;;;11.70;99.90;;;;;;5028669;28;20160;-88
2023/03/23 03:22:28;;;;;;;9.90;1.70;;;11.70;99.90;;;;;;5028603;28;20198;-87
2023/03/23 03:24:57;;;;;;;2.37;1.43;;;11.70;99.90;;;;;;5012787;28;20217;-88
2023/03/23 03:27:24;;;;;;;1.40;1.27;;;11.70;99.90;;;;;;5029456;28;20218;-86
2023/03/23 03:29:56;;;;;;;1.10;1.10;;;11.70;99.90;;;;;;5011487;28;20799;-88
2023/03/23 03:32:30;;;;;;;2.47;1.50;;;11.70;99.90;;;;;;5028265;28;20738;-88
2023/03/23 03:35:01;;;;;;;1.07;0.93;;;11.60;99.90;;;;;;5028381;28;20214;-87
2023/03/23 03:37:27;;;;;;;1.27;1.10;;;11.60;99.90;;;;;;5029197;28;20168;-87
2023/03/23 03:39:52;;;;;;;8.03;1.37;;;11.50;99.90;;;;;;5028088;28;20566;-87
2023/03/23 03:42:18;;;;;;;1.90;0.90;;;11.50;99.90;;;;;;5011761;28;20257;-87
2023/03/23 03:44:44;;;;;;;0.73;0.73;;;11.40;99.90;;;;;;5011143;28;20217;-87
2023/03/23 03:47:10;;;;;;;0.77;0.77;;;11.40;99.90;;;;;;5027236;28;20237;-87
2023/03/23 03:49:35;;;;;;;0.83;0.83;;;11.30;99.90;;;;;;5010936;28;20221;-86
2023/03/23 03:52:01;;;;;;;1.20;0.50;;;11.30;99.90;;;;;;5011812;28;20270;-87
2023/03/23 03:54:27;;;;;;;1.23;1.03;;;11.30;99.90;;;;;;5027522;28;20273;-86
2023/03/23 03:56:57;;;;;;;1.67;1.23;;;11.30;99.90;;;;;;5011250;28;20651;-86
2023/03/23 03:59:24;;;;;;;2.00;0.67;;;11.30;99.90;;;;;;5011825;28;20255;-86
2023/03/23 04:01:53;;;;;;;0.80;0.57;;;11.30;99.90;;;;;;5011079;28;20202;-87
2023/03/23 04:04:21;;;;;;;1.90;0.87;;;11.40;99.90;;;;;;5027859;28;20182;-86
2023/03/23 04:06:48;;;;;;;2.10;1.10;;;11.40;99.90;;;;;;5028525;28;20210;-87
2023/03/23 04:09:14;;;;;;;0.30;0.30;;;11.40;99.90;;;;;;5011395;28;20221;-87
2023/03/23 04:11:40;;;;;;;1.53;0.83;;;11.50;99.90;;;;;;5027258;28;20218;-87
2023/03/23 04:14:06;;;;;;;8.23;1.10;;;11.50;99.90;;;;;;5027653;28;20218;-87
2023/03/23 04:16:34;;;;;;;0.50;0.50;;;11.50;99.90;;;;;;5011834;28;20178;-87
2023/03/23 04:19:00;;;;;;;1.50;1.23;;;11.60;99.90;;;;;;5011295;28;20202;-86
2023/03/23 04:21:28;;;;;;;4.37;1.90;;;11.60;99.90;;;;;;5011161;28;20246;-87
2023/03/23 04:24:00;;;;;;;0.67;0.30;;;11.60;99.90;;;;;;5011497;28;20221;-87
2023/03/23 04:26:28;;;;;;;3.00;0.97;;;11.60;99.90;;;;;;5028398;28;20253;-87
2023/03/23 04:28:55;;;;;;;1.73;1.63;;;11.60;99.90;;;;;;5028492;28;20402;-87
2023/03/23 04:31:24;;;;;;;8.93;1.60;;;11.60;99.90;;;;;;5027728;28;20504;-87
2023/03/23 04:33:54;;;;;;;4.43;1.80;;;11.60;99.90;;;;;;5028412;28;20245;-87
2023/03/23 04:36:22;;;;;;;1.57;1.47;;;11.60;99.90;;;;;;5027581;28;20214;-87
2023/03/23 04:38:49;;;;;;;0.73;0.73;;;11.50;99.90;;;;;;5028431;28;20207;-87
2023/03/23 04:41:16;;;;;;;3.50;2.20;;;11.50;99.90;;;;;;5010856;28;20680;-87
2023/03/23 04:43:42;;;;;;;2.57;1.03;;;11.50;99.90;;;;;;5027351;28;20183;-87
2023/03/23 04:46:08;;;;;;;0.40;0.40;;;11.50;99.90;;;;;;5011131;28;20266;-88
2023/03/23 04:48:35;;;;;;;5.40;2.03;;;11.40;99.90;;;;;;5027235;28;20760;-87
2023/03/23 04:51:05;;;;;;;6.23;1.17;;;11.40;99.90;;;;;;5010787;28;20241;-88
2023/03/23 04:53:31;;;;;;;2.23;0.93;;;11.30;99.90;;;;;;5011397;28;20241;-87
2023/03/23 04:55:57;;;;;;;0.57;0.57;;;11.30;99.90;;;;;;5028446;28;20210;-87
2023/03/23 04:58:24;;;;;;;1.70;1.53;;;11.30;99.90;;;;;;5028683;28;20620;-87
2023/03/23 05:00:50;;;;;;;3.33;1.30;;;11.20;99.90;;;;;;5010598;28;20225;-88
2023/03/23 05:03:17;;;;;;;4.30;1.87;;;11.20;99.90;;;;;;5027268;28;20230;-87
2023/03/23 05:05:46;;;;;;;3.17;1.73;;;11.20;99.90;;;;;;5026937;28;20207;-87
2023/03/23 05:08:14;;;;;;;6.77;1.93;;;11.10;99.90;;;;;;5027909;28;20219;-87
2023/03/23 05:10:40;;;;;;;9.53;1.63;;;11.10;99.90;;;;;;5028049;28;20170;-87
2023/03/23 05:13:06;;;;;;;3.10;0.70;;;11.00;99.90;;;;;;5027800;28;20171;-86
2023/03/23 05:15:31;;;;;;;1.03;0.33;;;11.00;99.90;;;;;;5010375;28;20659;-87
2023/03/23 05:17:57;;;;;;;2.30;0.83;;;11.00;99.90;;;;;;5010306;28;20218;-87
2023/03/23 05:20:24;;;;;;;1.33;1.23;;;10.90;99.90;;;;;;5010255;28;20245;-86
2023/03/23 05:22:50;;;;;;;7.93;2.73;;;10.90;99.90;;;;;;5010499;28;20255;-88
2023/03/23 05:25:19;;;;;;;15.00;1.77;;;10.90;99.90;;;;;;5030050;28;20616;-88
2023/03/23 05:27:52;;;;;;;5.87;1.30;;;10.90;99.90;;;;;;5030770;28;20217;-90
2023/03/23 05:30:19;;;;;;;1.90;1.57;;;11.00;99.90;;;;;;5030350;28;20210;-90
2023/03/23 05:32:45;;;;;;;9.80;1.40;;;11.00;99.90;;;;;;5031905;28;20730;-91
2023/03/23 05:35:12;;;;;;;4.10;1.13;;;11.00;99.90;;;;;;5030967;28;20210;-91
2023/03/23 05:37:38;;;;;;;6.33;1.63;;;11.00;99.90;;;;;;5031201;28;20281;-90
2023/03/23 05:40:06;;;;;;;5.40;2.53;;;10.90;99.90;;;;;;5031797;28;20175;-90
2023/03/23 05:42:35;;;;;;;4.90;1.43;;;10.90;99.90;;;;;;5030961;28;20227;-91
2023/03/23 05:45:02;;;;;;;2.90;1.50;;;10.90;99.90;;;;;;5032471;28;20218;-90
2023/03/23 05:47:28;;;;;;;2.03;1.53;;;10.90;99.90;;;;;;5030793;28;20230;-90
2023/03/23 05:49:54;;;;;;;0.87;0.50;;;10.90;99.90;;;;;;5014646;28;21442;-90
2023/03/23 05:52:20;;;;;;;1.80;1.60;;;10.80;99.90;;;;;;5031828;28;20266;-91
2023/03/23 05:54:46;;;;;;;0.50;0.50;;;10.80;99.90;;;;;;5031929;28;20633;-91
2023/03/23 05:57:12;;;;;;;4.50;1.37;;;10.80;99.90;;;;;;5014283;28;20222;-90
2023/03/23 05:59:38;;;;;;;1.97;1.30;;;10.90;99.90;;;;;;5031450;28;20268;-92
2023/03/23 06:02:05;;;;;;;5.97;1.57;;;10.80;99.90;;;;;;5014714;28;20349;-90
2023/03/23 06:04:33;;;;;;;19.87;2.03;;;10.90;99.90;;;;;;5032947;28;20171;-91
2023/03/23 06:07:02;;;;;;;5.37;1.40;;;10.80;99.90;;;;;;5014492;28;20230;-91
2023/03/23 06:09:28;;;;;;;1.77;0.80;;;10.80;99.90;;;;;;5031524;28;20214;-91
2023/03/23 06:11:54;;;;;;;3.30;1.17;;;10.60;99.90;;;;;;5030564;28;20260;-90
2023/03/23 06:14:21;;;;;;;2.07;0.77;;;10.60;99.90;;;;;;5030526;28;20691;-91
2023/03/23 06:16:47;;;;;;;1.50;1.50;;;10.50;99.90;;;;;;5014033;28;20265;-92
2023/03/23 06:19:15;;;;;;;1.33;1.00;;;10.40;99.90;;;;;;5032376;28;20271;-89
2023/03/23 06:21:41;;;;;;;4.53;0.70;;;10.40;99.90;;;;;;5030501;28;20222;-91
2023/03/23 06:24:07;;;;;;;1.90;0.73;;;10.40;99.90;;;;;;5014038;28;20222;-91
2023/03/23 06:26:39;;;;;;;4.03;1.07;;;10.50;99.90;;;;;;5031544;28;20221;-92
2023/03/23 06:29:11;;;;;;;1.63;1.53;;;10.70;99.90;;;;;;5032698;28;20241;-94
2023/03/23 06:31:51;;;;;;;1.93;1.27;;;11.00;99.90;;;;;;5032187;28;20175;-94
2023/03/23 06:34:16;;;;;;;1.90;1.53;;;11.40;99.90;;;;;;5032710;28;20575;-94
2023/03/23 06:36:44;;;;;;;11.50;0.77;;;11.80;99.90;;;;;;5033952;28;20242;-93
2023/03/23 06:39:10;;;;;;;4.17;1.80;;;12.30;99.90;;;;;;5033603;28;20238;-94
2023/03/23 06:41:40;;;;;;;1.53;1.43;;;12.50;99.90;;;;;;5036379;28;20222;-94
2023/03/23 06:44:06;;;;;;;11.30;1.43;;;13.40;99.90;;;;;;5037290;28;20249;-94
2023/03/23 06:46:32;;;;;;;0.87;0.87;;;13.80;99.90;;;;;;5037364;28;20405;-92
2023/03/23 06:49:03;;;;;;;0.17;0.17;;;14.50;99.90;;;;;;5039032;28;20222;-95
2023/03/23 06:51:29;;;;;;;4.80;1.23;;;14.80;99.90;;;;;;5038926;28;20219;-93
2023/03/23 06:53:55;;;;;;;6.43;1.80;;;15.30;99.90;;;;;;5034219;28;20411;-94
2023/03/23 06:56:21;;;;;;;1.37;1.27;;;15.60;99.90;;;;;;5018924;28;20211;-94
2023/03/23 06:58:47;;;;;;;3.83;1.60;;;16.00;99.90;;;;;;5036731;28;20167;-96
2023/03/23 07:01:14;;;;;;;4.00;1.43;;;14.90;99.90;;;;;;5037658;28;20359;-96
2023/03/23 07:03:41;;;;;;;4.73;1.30;;;15.80;99.90;;;;;;5033839;28;20278;-92
2023/03/23 07:06:12;;;;;;;9.43;4.13;;;16.90;99.90;;;;;;5035005;28;20207;-94
2023/03/23 07:08:38;;;;;;;2.77;1.57;;;16.10;99.90;;;;;;5036097;28;20256;-93
2023/03/23 07:11:05;;;;;;;10.57;1.60;;;16.60;99.90;;;;;;5034741;28;20214;-95
2023/03/23 07:13:31;;;;;;;33.60;4.67;;;15.80;99.90;;;;;;5034420;28;20225;-94
2023/03/23 07:15:57;;;;;;;9.93;3.60;;;15.90;99.90;;;;;;5032638;28;20286;-95
2023/03/23 07:18:24;;;;;;;10.63;3.67;;;15.90;99.90;;;;;;5017638;28;20298;-94
2023/03/23 07:20:51;;;;;;;4.13;1.23;;;15.60;99.90;;;;;;5033590;28;20230;-95
2023/03/23 07:23:20;;;;;;;7.80;2.57;;;15.00;99.90;;;;;;5026884;28;20213;-94
2023/03/23 07:25:48;;;;;;;10.00;2.27;;;14.20;99.90;;;;;;5029686;28;20210;-92
2023/03/23 07:28:15;;;;;;;6.70;4.03;;;13.40;99.90;;;;;;5035110;28;20198;-94
2023/03/23 07:30:41;;;;;;;7.77;1.73;;;13.90;99.90;;;;;;5035547;28;20226;-92
2023/03/23 07:33:08;;;;;;;5.47;2.03;;;14.80;99.90;;;;;;5030637;28;20778;-94
2023/03/23 07:35:35;;;;;;;5.83;3.43;;;14.70;99.90;;;;;;5031775;28;20234;-93
2023/03/23 07:38:02;;;;;;;6.07;1.80;;;15.50;99.90;;;;;;5031190;28;20214;-95
2023/03/23 07:40:28;;;;;;;6.33;1.93;;;15.50;99.90;;;;;;5033578;28;20253;-95
2023/03/23 07:42:56;;;;;;;4.93;2.00;;;16.10;99.90;;;;;;5036422;28;20222;-95
2023/03/23 07:45:24;;;;;;;9.03;2.13;;;16.20;99.90;;;;;;5031806;28;20244;-94
2023/03/23 07:47:53;;;;;;;12.83;3.30;;;16.60;99.90;;;;;;5032031;28;20222;-94
2023/03/23 07:50:24;;;;;;;6.43;2.30;;;17.00;99.90;;;;;;5032546;28;20249;-94
2023/03/23 07:52:52;;;;;;;5.53;2.23;;;17.20;99.90;;;;;;5035702;28;20174;-94
2023/03/23 07:55:21;;;;;;;7.90;2.23;;;17.70;99.90;;;;;;5036778;28;20229;-95
2023/03/23 07:57:48;;;;;;;7.40;2.97;;;17.50;99.90;;;;;;5035597;28;20239;-94
2023/03/23 08:00:23;;;;;;;8.40;2.63;;;18.40;99.90;;;;;;5037450;28;20683;-93
2023/03/23 08:02:58;;;;;;;6.73;2.30;;;19.50;99.90;;;;;;5036376;28;20236;-95
2023/03/23 08:05:26;;;;;;;19.70;2.60;;;18.60;99.90;;;;;;5032288;28;20255;-94
2023/03/23 08:07:54;;;;;;;5.10;1.63;;;18.10;99.90;;;;;;5031470;28;20178;-93
2023/03/23 08:10:24;;;;;;;1.83;1.40;;;16.80;99.90;;;;;;5031839;28;20588;-94
2023/03/23 08:12:55;;;;;;;5.57;1.67;;;15.30;99.90;;;;;;5034031;28;20222;-94
2023/03/23 08:15:22;;;;;;;11.67;2.83;;;15.20;99.90;;;;;;5035728;28;20230;-94
2023/03/23 08:17:51;;;;;;;7.87;2.10;;;15.40;99.90;;;;;;5034067;28;20293;-93
2023/03/23 08:20:18;;;;;;;5.97;1.73;;;15.70;99.90;;;;;;5041746;28;20233;-94
2023/03/23 08:22:53;;;;;;;7.20;1.23;;;16.30;99.90;;;;;;5043423;28;20210;-95
2023/03/23 08:25:19;;;;;;;7.20;2.63;;;17.90;99.90;;;;;;5039158;28;20221;-93
2023/03/23 08:27:45;;;;;;;2.73;1.47;;;18.40;99.90;;;;;;5020830;28;20218;-93
2023/03/23 08:30:15;;;;;;;6.83;2.37;;;18.50;99.90;;;;;;5048555;28;20218;-90
2023/03/23 08:32:41;;;;;;;6.87;2.17;;;18.70;99.90;;;;;;5029012;28;20427;-94
2023/03/23 08:35:10;;;;;;;9.37;3.27;;;18.60;99.90;;;;;;5028916;28;20560;-94
2023/03/23 08:37:37;;;;;;;11.27;2.17;;;18.80;99.90;;;;;;5030033;28;20276;-95
2023/03/23 08:40:09;;;;;;;5.43;1.43;;;19.30;99.90;;;;;;5031298;28;20171;-93
2023/03/23 08:42:35;;;;;;;4.63;1.73;;;18.80;99.90;;;;;;5030214;28;20691;-92
2023/03/23 08:45:02;;;;;;;11.03;2.50;;;19.00;99.90;;;;;;5029819;28;20229;-94
2023/03/23 08:47:28;;;;;;;5.43;1.50;;;18.50;99.90;;;;;;5028843;28;20238;-92
2023/03/23 08:49:54;;;;;;;7.10;2.17;;;18.80;99.90;;;;;;5028547;28;20531;-92
2023/03/23 08:52:20;;;;;;;6.57;2.00;;;19.20;99.90;;;;;;5012892;28;20228;-92
2023/03/23 08:54:47;;;;;;;4.83;1.10;;;19.50;99.90;;;;;;5014205;28;20233;-93
2023/03/23 08:57:14;;;;;;;7.13;1.37;;;20.60;99.90;;;;;;5028725;28;20653;-94
2023/03/23 08:59:41;;;;;;;17.00;2.10;;;19.80;99.90;;;;;;5030153;28;20213;-93
2023/03/23 09:02:11;;;;;;;5.73;1.77;;;18.70;99.90;;;;;;5033156;28;20222;-96
2023/03/23 09:04:38;;;;;;;7.27;2.00;;;18.00;99.90;;;;;;5033448;28;20694;-93
2023/03/23 09:07:05;;;;;;;4.33;2.30;;;18.10;99.90;;;;;;5050897;28;20174;-91
2023/03/23 09:09:30;;;;;;;12.00;3.63;;;18.00;99.90;;;;;;5033911;28;20213;-93
2023/03/23 09:11:56;;;;;;;4.83;1.73;;;18.20;99.90;;;;;;5019087;28;20338;-92
2023/03/23 09:14:22;;;;;;;6.23;1.43;;;18.10;99.90;;;;;;5036170;28;20622;-93
2023/03/23 09:16:47;;;;;;;11.87;2.03;;;17.50;99.90;;;;;;5017066;28;20179;-94
2023/03/23 09:19:13;;;;;;;4.63;2.10;;;16.70;99.90;;;;;;5017601;28;20262;-91
2023/03/23 09:21:39;;;;;;;4.63;1.33;;;16.20;99.90;;;;;;5015130;28;20305;-90
2023/03/23 09:24:05;;;;;;;9.50;2.60;;;15.40;99.90;;;;;;5031626;28;20412;-92
2023/03/23 09:26:31;;;;;;;8.00;1.70;;;15.40;99.90;;;;;;5031528;28;20256;-95
2023/03/23 09:28:58;;;;;;;4.80;1.80;;;15.00;99.90;;;;;;5032596;28;20210;-95
2023/03/23 09:31:26;;;;;;;5.77;1.63;;;14.60;99.90;;;;;;5016869;28;20247;-93
2023/03/23 09:33:55;;;;;;;6.70;1.10;;;14.60;99.90;;;;;;5035272;28;20222;-93
2023/03/23 09:36:21;;;;;;;6.73;2.17;;;15.10;99.90;;;;;;5021617;28;20237;-94
2023/03/23 09:38:50;;;;;;;7.80;1.80;;;15.60;99.90;;;;;;5037476;28;20297;-93
2023/03/23 09:41:31;;;;;;;5.87;1.60;;;16.50;99.90;;;;;;5035546;28;20226;-95
2023/03/23 09:44:10;;;;;;;7.30;2.03;;;16.40;99.90;;;;;;5033690;28;20206;-95
2023/03/23 09:47:01;;;;;;;3.77;1.40;;;16.90;99.90;;;;;;5032238;28;20731;-94
2023/03/23 09:49:39;;;;;;;10.10;2.10;;;16.80;99.90;;;;;;5035274;28;20194;-95
2023/03/23 09:52:13;;;;;;;8.63;1.63;;;16.60;99.90;;;;;;5035955;28;20216;-95
2023/03/23 09:54:46;;;;;;;2.27;1.50;;;16.70;99.90;;;;;;5032594;28;20214;-93
2023/03/23 09:57:35;;;;;;;7.87;1.90;;;16.60;99.90;;;;;;5032370;28;20221;-96
2023/03/23 10:00:16;;;;;;;4.07;1.63;;;17.10;99.90;;;;;;5038915;28;20695;-92
2023/03/23 10:03:09;;;;;;;2.03;1.27;;;16.70;99.90;;;;;;5036817;28;20644;-94
2023/03/23 10:05:39;;;;;;;11.00;1.63;;;16.10;99.90;;;;;;5034416;28;20214;-92
2023/03/23 10:08:20;;;;;;;3.03;0.97;;;15.50;99.90;;;;;;5035479;28;20567;-94
2023/03/23 10:11:07;;;;;;;6.27;2.37;;;15.60;99.90;;;;;;5032199;28;20171;-94
2023/03/23 10:14:07;;;;;;;3.03;0.97;;;16.10;99.90;;;;;;5031955;28;20178;-95
2023/03/23 10:16:51;;;;;;;3.83;1.97;;;16.00;99.90;;;;;;5031228;28;20222;-92
2023/03/23 10:19:35;;;;;;;5.70;2.07;;;16.60;99.90;;;;;;5033345;28;20163;-93
2023/03/23 10:22:09;;;;;;;8.63;1.43;;;16.50;99.90;;;;;;5031244;28;20222;-92
2023/03/23 10:25:11;;;;;;;4.10;1.47;;;16.50;99.90;;;;;;5031044;28;20215;-94
2023/03/23 10:27:49;;;;;;;6.00;2.37;;;16.80;99.90;;;;;;5032067;28;20306;-93
2023/03/23 10:30:26;;;;;;;7.83;1.47;;;16.30;99.90;;;;;;5030182;28;20601;-93
2023/03/23 10:33:11;;;;;;;12.33;2.13;;;16.60;99.90;;;;;;5031172;28;20408;-96
2023/03/23 10:35:43;;;;;;;6.93;1.53;;;16.90;99.90;;;;;;5032231;28;20207;-95
2023/03/23 10:38:17;;;;;;;11.33;2.17;;;16.50;99.90;;;;;;5030571;28;20304;-93
2023/03/23 10:40:56;;;;;;;6.90;2.17;;;16.10;99.90;;;;;;5031448;28;20173;-92
2023/03/23 10:43:23;;;;;;;5.63;2.13;;;16.10;99.90;;;;;;5032000;28;20163;-93
2023/03/23 10:45:59;;;;;;;5.67;2.37;;;16.80;99.90;;;;;;5030316;28;20215;-93
2023/03/23 10:48:38;;;;;;;7.87;2.27;;;17.10;99.90;;;;;;5029983;28;20233;-93
2023/03/23 10:51:10;;;;;;;7.73;1.07;;;16.60;99.90;;;;;;5030037;28;20268;-91
2023/03/23 10:53:39;;;;;;;9.13;2.23;;;16.00;99.90;;;;;;5030447;28;20218;-92
2023/03/23 10:56:18;;;;;;;3.40;2.10;;;15.40;99.90;;;;;;5030121;28;20210;-91
2023/03/23 10:58:44;;;;;;;10.77;1.63;;;15.60;99.90;;;;;;5015399;28;20182;-91
2023/03/23 11:01:12;;;;;;;7.83;1.30;;;15.10;99.90;;;;;;5033039;28;20409;-94
2023/03/23 11:03:43;;;;;;;4.40;1.53;;;15.30;99.90;;;;;;5034772;28;20242;-92
2023/03/23 11:06:33;;;;;;;7.13;1.93;;;14.70;99.90;;;;;;5031128;28;20304;-92
2023/03/23 11:09:03;;;;;;;3.37;1.57;;;15.00;99.90;;;;;;5031210;28;20218;-92
2023/03/23 11:11:32;;;;;;;2.43;0.70;;;15.00;99.90;;;;;;5032004;28;20221;-93
2023/03/23 11:14:27;;;;;;;2.93;1.30;;;15.00;99.90;;;;;;5030559;28;20211;-94
2023/03/23 11:16:55;;;;;;;7.93;1.73;;;15.50;99.90;;;;;;5029522;28;20164;-95
2023/03/23 11:19:41;;;;;;;3.03;1.13;;;15.40;99.90;;;;;;5030124;28;20198;-93
2023/03/23 11:22:27;;;;;;;11.20;2.03;;;15.20;99.90;;;;;;5028487;28;20328;-92
2023/03/23 11:24:59;;;;;;;6.57;1.77;;;15.30;99.90;;;;;;5029633;28;20221;-93
2023/03/23 11:27:26;;;;;;;3.53;1.80;;;15.90;99.90;;;;;;5032017;28;20232;-94
2023/03/23 11:29:56;;;;;;;2.70;0.93;;;16.10;99.90;;;;;;5029908;28;20214;-94
2023/03/23 11:32:29;;;;;;;9.47;3.03;;;15.90;99.90;;;;;;5030683;28;20214;-96
2023/03/23 11:34:59;;;;;;;2.27;1.20;;;16.40;99.90;;;;;;5031411;28;20194;-95
2023/03/23 11:37:36;;;;;;;9.47;2.63;;;15.40;99.90;;;;;;5032745;28;20163;-96
2023/03/23 11:40:15;;;;;;;4.27;2.60;;;15.70;99.90;;;;;;5031007;28;20274;-93
2023/03/23 11:42:58;;;;;;;3.03;1.27;;;15.40;99.90;;;;;;5040073;28;20222;-94
2023/03/23 11:45:35;;;;;;;3.60;1.47;;;15.10;99.90;;;;;;5036741;28;20242;-96
2023/03/23 11:48:26;;;;;;;1.63;1.33;;;16.00;99.90;;;;;;5031406;28;20234;-92
2023/03/23 11:51:06;;;;;;;5.73;1.33;;;16.20;99.90;;;;;;5030758;28;20222;-95
2023/03/23 11:54:00;;;;;;;3.53;0.70;;;16.10;99.90;;;;;;5033331;28;20240;-90
2023/03/23 11:56:26;;;;;;;5.27;1.33;;;16.20;99.90;;;;;;5030013;28;20230;-95
2023/03/23 11:58:55;;;;;;;4.20;1.70;;;16.50;99.90;;;;;;5031091;28;20209;-94
2023/03/23 12:01:37;;;;;;;7.90;1.43;;;16.30;99.90;;;;;;5031617;28;20206;-94
2023/03/23 12:04:36;;;;;;;8.63;1.40;;;15.60;99.90;;;;;;5038540;28;20222;-96
2023/03/23 12:07:42;;;;;;;14.77;1.60;;;15.00;99.90;;;;;;5051760;28;20194;-95
2023/03/23 12:10:11;;;;;;;4.60;1.13;;;14.80;99.90;;;;;;5046698;28;20230;-94
2023/03/23 12:12:44;;;;;;;1.63;1.00;;;14.40;99.90;;;;;;5031602;28;20214;-95
2023/03/23 12:15:26;;;;;;;7.07;1.40;;;14.40;99.90;;;;;;5031589;28;20225;-95
2023/03/23 12:17:57;;;;;;;4.13;1.00;;;14.40;99.90;;;;;;5030623;28;20229;-94
2023/03/23 12:20:45;;;;;;;3.50;0.70;;;14.20;99.90;;;;;;5030675;28;20214;-95
2023/03/23 12:23:35;;;;;;;6.63;1.10;;;14.40;99.90;;;;;;5030570;28;20222;-95
2023/03/23 12:26:09;;;;;;;5.07;1.20;;;14.00;99.90;;;;;;5030429;28;20218;-95
2023/03/23 12:28:44;;;;;;;1.20;1.10;;;14.10;99.90;;;;;;5030122;28;20219;-95
2023/03/23 12:31:35;;;;;;;11.43;1.17;;;14.40;99.90;;;;;;5046423;28;20198;-95
2023/03/23 12:34:10;;;;;;;4.13;1.20;;;14.40;99.90;;;;;;5049736;28;20190;-95
2023/03/23 12:37:04;;;;;;;4.73;1.20;;;14.40;99.90;;;;;;5033628;28;20264;-94
2023/03/23 12:39:54;;;;;;;6.83;1.73;;;14.60;99.90;;;;;;5034920;28;20218;-96
2023/03/23 12:42:44;;;;;;;3.13;1.10;;;14.70;99.90;;;;;;5033691;28;20226;-93
2023/03/23 12:45:23;;;;;;;5.77;1.60;;;14.70;99.90;;;;;;5033720;28;20599;-94
2023/03/23 12:47:56;;;;;;;10.13;1.47;;;14.90;99.90;;;;;;5033636;28;20233;-93
2023/03/23 12:50:39;;;;;;;2.73;0.97;;;15.10;99.90;;;;;;5033331;28;20229;-96
2023/03/23 12:53:21;;;;;;;2.43;1.43;;;15.30;99.90;;;;;;5033373;28;20210;-94
2023/03/23 12:56:08;;;;;;;2.97;0.90;;;15.20;99.90;;;;;;5032179;28;20178;-95
2023/03/23 12:58:40;;;;;;;2.10;1.33;;;15.00;99.90;;;;;;5032968;28;20174;-94
2023/03/23 13:01:12;;;;;;;2.10;0.97;;;15.10;99.90;;;;;;5032991;28;20214;-94
2023/03/23 13:04:01;;;;;;;1.07;0.87;;;15.50;99.90;;;;;;5033233;28;20210;-96
2023/03/23 13:06:37;;;;;;;7.70;2.57;;;15.40;99.90;;;;;;5034403;28;20206;-95
2023/03/23 13:09:29;;;;;;;5.90;1.03;;;15.50;99.90;;;;;;5035300;28;20222;-96